Time;durP1;ratioP1;P1;durP2;ratioP2;P2;SDS_P1;SDS_P2;PMS_P1;PMS_P2;Temp;Humidity;BMP_temperature;BMP_pressure;BME280_temperature;BME280_humidity;BME280_pressure;Samples;Min_cycle;Max_cycle;Signal;HPM_P1;HPM_P2
2023/09/25 00:02:16;;;;;;;3.53;2.30;;;;;;;-148.15;100.00;61821.78;4907333;29;20065;-93
2023/09/25 00:04:42;;;;;;;3.67;2.20;;;;;;;-148.15;100.00;61821.78;4914805;29;20126;-93
2023/09/25 00:07:07;;;;;;;3.60;2.23;;;;;;;-148.15;100.00;61821.78;4900144;29;20033;-92
2023/09/25 00:09:32;;;;;;;6.35;2.58;;;;;;;-148.15;100.00;61821.78;4907779;29;20127;-93
2023/09/25 00:11:58;;;;;;;3.57;2.17;;;;;;;-148.15;100.00;61821.78;4900804;29;20035;-94
2023/09/25 00:14:24;;;;;;;5.43;2.00;;;;;;;-148.15;100.00;61821.78;4907361;29;20035;-93
2023/09/25 00:16:49;;;;;;;3.95;2.13;;;;;;;-148.15;100.00;61821.78;4898497;29;20025;-93
2023/09/25 00:19:15;;;;;;;4.03;2.20;;;;;;;-148.15;100.00;61821.78;4913249;29;20038;-93
2023/09/25 00:21:41;;;;;;;3.95;2.30;;;;;;;-148.15;100.00;61821.78;4898553;29;20024;-92
2023/09/25 00:24:06;;;;;;;4.77;2.10;;;;;;;-148.15;100.00;61821.78;4906698;29;20042;-92
2023/09/25 00:26:32;;;;;;;3.35;2.33;;;;;;;-148.15;100.00;61821.78;4908650;29;20047;-92
2023/09/25 00:28:57;;;;;;;3.23;2.30;;;;;;;-148.15;100.00;61821.78;4907513;29;20057;-92
2023/09/25 00:31:22;;;;;;;4.77;2.50;;;;;;;-148.15;100.00;61821.78;4897722;29;20104;-92
2023/09/25 00:33:48;;;;;;;3.67;2.50;;;;;;;-148.15;100.00;61821.78;4909785;29;20099;-93
2023/09/25 00:36:13;;;;;;;7.47;2.43;;;;;;;-148.15;100.00;61821.78;4896619;29;20029;-92
2023/09/25 00:38:39;;;;;;;4.93;2.42;;;;;;;-148.15;100.00;61821.78;4896140;29;20035;-92
2023/09/25 00:41:05;;;;;;;4.33;2.57;;;;;;;-148.15;100.00;61821.78;4897646;29;20127;-92
2023/09/25 00:43:30;;;;;;;3.80;2.10;;;;;;;-148.15;100.00;61821.78;4900693;29;21016;-92
2023/09/25 00:45:55;;;;;;;4.87;2.20;;;;;;;-148.15;100.00;61821.78;4898849;29;20024;-93
2023/09/25 00:48:28;;;;;;;5.13;2.33;;;;;;;-148.15;100.00;61821.78;4902821;29;20081;-92
2023/09/25 00:50:55;;;;;;;4.68;2.33;;;;;;;-148.15;100.00;61821.78;4899177;29;20044;-93
2023/09/25 00:53:21;;;;;;;3.17;2.28;;;;;;;-148.15;100.00;61821.78;4897144;29;20507;-92
2023/09/25 00:55:48;;;;;;;3.40;2.37;;;;;;;-148.15;100.00;61821.78;4907233;29;20056;-92
2023/09/25 00:58:13;;;;;;;4.77;2.17;;;;;;;-148.15;100.00;61821.78;4897246;29;20387;-92
2023/09/25 01:00:39;;;;;;;4.88;2.35;;;;;;;-148.15;100.00;61821.78;4901003;29;20123;-92
2023/09/25 01:03:05;;;;;;;3.80;2.17;;;;;;;-148.15;100.00;61821.78;4888391;29;20496;-92
2023/09/25 01:05:32;;;;;;;4.35;2.58;;;;;;;-148.15;100.00;61821.78;4896175;29;20028;-92
2023/09/25 01:07:58;;;;;;;3.10;2.10;;;;;;;-148.15;100.00;61821.78;4899977;29;20036;-92
2023/09/25 01:10:23;;;;;;;4.83;2.50;;;;;;;-148.15;100.00;61821.78;4895015;29;20028;-92
2023/09/25 01:12:50;;;;;;;4.03;2.47;;;;;;;-148.15;100.00;61821.78;4909593;29;20020;-92
2023/09/25 01:15:16;;;;;;;5.07;2.42;;;;;;;-148.15;100.00;61821.78;4893515;29;20126;-92
2023/09/25 01:17:42;;;;;;;5.22;3.08;;;;;;;-148.15;100.00;61821.78;4902767;29;20067;-92
2023/09/25 01:20:13;;;;;;;3.60;2.40;;;;;;;-148.15;100.00;61821.78;4913090;29;20389;-92
2023/09/25 01:22:40;;;;;;;3.65;2.28;;;;;;;-148.15;100.00;61821.78;4914119;29;20520;-92
2023/09/25 01:25:06;;;;;;;5.18;2.28;;;;;;;-148.15;100.00;61821.78;4908585;29;20496;-92
2023/09/25 01:27:31;;;;;;;2.87;2.13;;;;;;;-148.15;100.00;61821.78;4895571;29;20059;-92
2023/09/25 01:29:57;;;;;;;3.45;2.10;;;;;;;-148.15;100.00;61821.78;4911393;29;20440;-92
2023/09/25 01:32:22;;;;;;;4.13;2.40;;;;;;;-148.15;100.00;61821.78;4908572;29;20036;-92
2023/09/25 01:34:47;;;;;;;3.53;2.23;;;;;;;-148.15;100.00;61821.78;4895673;29;20052;-92
2023/09/25 01:37:13;;;;;;;2.63;1.90;;;;;;;-148.15;100.00;61821.78;4895402;29;20544;-92
2023/09/25 01:39:39;;;;;;;6.33;2.50;;;;;;;-148.15;100.00;61821.78;4895623;29;20036;-93
2023/09/25 01:42:04;;;;;;;4.78;2.10;;;;;;;-148.15;100.00;61821.78;4895113;29;20033;-92
2023/09/25 01:44:30;;;;;;;5.85;2.03;;;;;;;-148.15;100.00;61821.78;4893974;29;20111;-93
2023/09/25 01:46:56;;;;;;;4.43;2.50;;;;;;;-148.15;100.00;61821.78;4895610;29;20111;-92
2023/09/25 01:49:22;;;;;;;5.28;2.10;;;;;;;-148.15;100.00;61821.78;4896220;29;20543;-92
2023/09/25 01:51:49;;;;;;;3.07;2.00;;;;;;;-148.15;100.00;61821.78;4894605;29;20037;-92
2023/09/25 01:54:14;;;;;;;4.82;2.17;;;;;;;-148.15;100.00;61821.78;4900918;29;20035;-93
2023/09/25 01:56:39;;;;;;;5.20;1.90;;;;;;;-148.15;100.00;61821.78;4914231;29;20028;-93
2023/09/25 01:59:05;;;;;;;3.53;2.13;;;;;;;-148.15;100.00;61821.78;4885107;29;20028;-92
2023/09/25 02:01:30;;;;;;;4.87;2.33;;;;;;;-148.15;100.00;61821.78;4901062;29;20029;-93
2023/09/25 02:03:55;;;;;;;3.63;1.98;;;;;;;-148.15;100.00;61821.78;4901213;29;20023;-92
2023/09/25 02:06:21;;;;;;;3.33;2.20;;;;;;;-148.15;100.00;61821.78;4902448;29;20028;-92
2023/09/25 02:08:46;;;;;;;4.67;1.93;;;;;;;-148.15;100.00;61821.78;4912374;29;20029;-92
2023/09/25 02:11:12;;;;;;;5.37;2.43;;;;;;;-148.15;100.00;61821.78;4904203;29;20083;-92
2023/09/25 02:13:37;;;;;;;3.53;2.10;;;;;;;-148.15;100.00;61821.78;4919632;29;21375;-91
2023/09/25 02:16:02;;;;;;;4.18;2.33;;;;;;;-148.15;100.00;61821.78;4914444;29;20032;-92
2023/09/25 02:18:28;;;;;;;5.43;2.63;;;;;;;-148.15;100.00;61821.78;4906790;29;20116;-93
2023/09/25 02:20:54;;;;;;;3.10;2.27;;;;;;;-148.15;100.00;61821.78;4877727;29;20118;-93
2023/09/25 02:23:19;;;;;;;3.10;2.13;;;;;;;-148.15;100.00;61821.78;4890213;29;20705;-93
2023/09/25 02:25:45;;;;;;;4.75;2.50;;;;;;;-148.15;100.00;61821.78;4910056;29;20115;-92
2023/09/25 02:28:10;;;;;;;4.27;2.40;;;;;;;-148.15;100.00;61821.78;4907616;29;20033;-93
2023/09/25 02:30:36;;;;;;;4.50;2.43;;;;;;;-148.15;100.00;61821.78;4911926;29;20107;-92
2023/09/25 02:33:01;;;;;;;8.70;2.77;;;;;;;-148.15;100.00;61821.78;4896500;29;20031;-92
2023/09/25 02:35:26;;;;;;;4.78;2.42;;;;;;;-148.15;100.00;61821.78;4897289;29;20057;-92
2023/09/25 02:37:52;;;;;;;5.67;2.57;;;;;;;-148.15;100.00;61821.78;4898182;29;20076;-92
2023/09/25 02:40:17;;;;;;;3.47;2.50;;;;;;;-148.15;100.00;61821.78;4904121;29;20039;-92
2023/09/25 02:42:46;;;;;;;4.23;2.10;;;;;;;-148.15;100.00;61821.78;4913401;29;20039;-92
2023/09/25 02:45:12;;;;;;;4.38;2.30;;;;;;;-148.15;100.00;61821.78;4911261;29;20524;-93
2023/09/25 02:47:37;;;;;;;4.18;2.22;;;;;;;-148.15;100.00;61821.78;4896025;29;20108;-93
2023/09/25 02:50:03;;;;;;;6.73;2.43;;;;;;;-148.15;100.00;61821.78;4909239;29;20415;-92
2023/09/25 02:52:28;;;;;;;4.07;2.77;;;;;;;-148.15;100.00;61821.78;4893918;29;20049;-93
2023/09/25 02:54:54;;;;;;;4.30;2.50;;;;;;;-148.15;100.00;61821.78;4877950;29;20099;-93
2023/09/25 02:57:19;;;;;;;2.70;2.20;;;;;;;-148.15;100.00;61821.78;4893971;29;20099;-93
2023/09/25 02:59:45;;;;;;;4.20;2.40;;;;;;;-148.15;100.00;61821.78;4900024;29;20535;-93
2023/09/25 03:02:10;;;;;;;2.20;1.90;;;;;;;-148.15;100.00;61821.78;4908567;29;20021;-92
2023/09/25 03:04:37;;;;;;;4.82;2.50;;;;;;;-148.15;100.00;61821.78;4907993;29;20965;-91
2023/09/25 03:07:02;;;;;;;3.80;2.20;;;;;;;-148.15;100.00;61821.78;4899396;29;20511;-91
2023/09/25 03:09:28;;;;;;;5.00;2.27;;;;;;;-148.15;100.00;61821.78;4894126;29;20312;-90
2023/09/25 03:11:53;;;;;;;2.40;2.13;;;;;;;-148.15;100.00;61821.78;4895513;29;20036;-90
2023/09/25 03:14:18;;;;;;;3.77;2.37;;;;;;;-148.15;100.00;61821.78;4916313;29;20047;-89
2023/09/25 03:16:45;;;;;;;3.20;2.10;;;;;;;-148.15;100.00;61821.78;4915352;29;20035;-90
2023/09/25 03:19:10;;;;;;;3.60;2.10;;;;;;;-148.15;100.00;61821.78;4902602;29;20025;-91
2023/09/25 03:21:35;;;;;;;3.28;2.20;;;;;;;-148.15;100.00;61821.78;4897505;29;20073;-90
2023/09/25 03:24:01;;;;;;;6.53;2.27;;;;;;;-148.15;100.00;61821.78;4885470;29;20035;-91
2023/09/25 03:26:26;;;;;;;5.13;2.10;;;;;;;-148.15;100.00;61821.78;4904760;29;20036;-91
2023/09/25 03:28:51;;;;;;;5.93;2.37;;;;;;;-148.15;100.00;61821.78;4902091;29;20044;-90
2023/09/25 03:31:17;;;;;;;3.70;2.00;;;;;;;-148.15;100.00;61821.78;4908949;29;20043;-90
2023/09/25 03:33:45;;;;;;;6.78;2.10;;;;;;;-148.15;100.00;61821.78;4899068;29;20160;-90
2023/09/25 03:36:11;;;;;;;3.58;2.30;;;;;;;-148.15;100.00;61821.78;4901247;29;20111;-90
2023/09/25 03:38:37;;;;;;;4.20;2.17;;;;;;;-148.15;100.00;61821.78;4914363;29;20068;-90
2023/09/25 03:41:02;;;;;;;3.13;2.33;;;;;;;-148.15;100.00;61821.78;4905269;29;20045;-90
2023/09/25 03:43:27;;;;;;;3.53;1.83;;;;;;;-148.15;100.00;61821.78;4897029;29;20025;-90
2023/09/25 03:45:53;;;;;;;3.33;1.97;;;;;;;-148.15;100.00;61821.78;4897773;29;20023;-89
2023/09/25 03:48:18;;;;;;;2.73;2.00;;;;;;;-148.15;100.00;61821.78;4907070;29;20028;-90
2023/09/25 03:50:44;;;;;;;6.70;1.90;;;;;;;-148.15;100.00;61821.78;4908586;29;20035;-90
2023/09/25 03:53:11;;;;;;;4.27;2.30;;;;;;;-148.15;100.00;61821.78;4900881;29;20110;-90
2023/09/25 03:55:37;;;;;;;3.00;2.00;;;;;;;-148.15;100.00;61821.78;4902276;29;20036;-90
2023/09/25 03:58:02;;;;;;;3.72;2.10;;;;;;;-148.15;100.00;61821.78;4912974;29;20031;-90
2023/09/25 04:00:28;;;;;;;3.37;2.10;;;;;;;-148.15;100.00;61821.78;4916856;29;20464;-90
2023/09/25 04:02:53;;;;;;;4.13;2.00;;;;;;;-148.15;100.00;61821.78;4934449;29;20032;-90
2023/09/25 04:05:18;;;;;;;4.50;2.10;;;;;;;-148.15;100.00;61821.78;4934987;29;20460;-91
2023/09/25 04:07:45;;;;;;;4.10;1.75;;;;;;;-148.15;100.00;61821.78;4904073;29;20052;-90
2023/09/25 04:10:11;;;;;;;3.08;1.80;;;;;;;-148.15;100.00;61821.78;4909819;29;20024;-92
2023/09/25 04:12:36;;;;;;;4.07;2.13;;;;;;;-148.15;100.00;61821.78;4913328;29;20445;-91
2023/09/25 04:15:08;;;;;;;3.67;1.80;;;;;;;-148.15;100.00;61821.78;4926814;29;20464;-92
2023/09/25 04:17:33;;;;;;;5.88;2.00;;;;;;;-148.15;100.00;61821.78;4910525;29;20051;-95
2023/09/25 04:19:59;;;;;;;2.80;1.80;;;;;;;-148.15;100.00;61821.78;4903237;29;20119;-93
2023/09/25 04:22:25;;;;;;;3.38;2.08;;;;;;;-148.15;100.00;61821.78;4919687;29;20107;-96
2023/09/25 04:24:53;;;;;;;3.13;2.10;;;;;;;-148.15;100.00;61821.78;4937294;29;20030;-96
2023/09/25 04:27:18;;;;;;;2.45;1.92;;;;;;;-148.15;100.00;61821.78;4899486;29;20021;-96
2023/09/25 04:29:44;;;;;;;3.23;1.90;;;;;;;-148.15;100.00;61821.78;4898920;29;20491;-96
2023/09/25 04:32:09;;;;;;;3.10;1.80;;;;;;;-148.15;100.00;61821.78;4898403;29;20033;-96
2023/09/25 04:34:37;;;;;;;5.67;1.93;;;;;;;-148.15;100.00;61821.78;4906927;29;20020;-95
2023/09/25 04:37:08;;;;;;;3.38;2.00;;;;;;;-148.15;100.00;61821.78;4891673;29;20028;-96
2023/09/25 04:39:33;;;;;;;4.85;2.20;;;;;;;-148.15;100.00;61821.78;4969695;23;20047;-95
2023/09/25 04:42:01;;;;;;;3.23;1.97;;;;;;;-148.15;100.00;61821.78;4938334;29;20042;-95
2023/09/25 04:44:27;;;;;;;4.18;2.30;;;;;;;-148.15;100.00;61821.78;4937487;29;20067;-95
2023/09/25 04:46:52;;;;;;;3.53;2.20;;;;;;;-148.15;100.00;61821.78;4918548;29;20118;-95
2023/09/25 04:49:32;;;;;;;5.23;2.00;;;;;;;-148.15;100.00;61821.78;4956642;23;20047;-94
2023/09/25 04:51:58;;;;;;;4.07;1.83;;;;;;;-148.15;100.00;61821.78;4918363;29;20287;-95
2023/09/25 05:02:01;;;;;;;4.10;2.10;;;;;;;-148.15;100.00;61821.78;4838836;29;20062;-96
2023/09/25 05:08:02;;;;;;;5.03;2.13;;;;;;;-148.15;100.00;61821.78;4799480;29;20030;-92
2023/09/25 05:10:41;;;;;;;3.27;1.90;;;;;;;-148.15;100.00;61821.78;4810055;29;20079;-93
2023/09/25 05:13:15;;;;;;;3.73;2.10;;;;;;;-148.15;100.00;61821.78;5006914;23;20307;-94
2023/09/25 05:16:07;;;;;;;3.15;2.00;;;;;;;-148.15;100.00;61821.78;4951206;28;20751;-95
2023/09/25 05:18:58;;;;;;;2.78;2.10;;;;;;;-148.15;100.00;61821.78;4950831;23;20114;-95
2023/09/25 05:21:23;;;;;;;4.78;2.50;;;;;;;-148.15;100.00;61821.78;4816535;29;20056;-93
2023/09/25 05:23:49;;;;;;;7.25;2.00;;;;;;;-148.15;100.00;61821.78;4930644;29;20088;-93
2023/09/25 05:27:05;;;;;;;4.03;2.20;;;;;;;-148.15;100.00;61821.78;4934243;29;20027;-94
2023/09/25 05:29:32;;;;;;;4.63;2.10;;;;;;;-148.15;100.00;61821.78;4867256;29;20051;-93
2023/09/25 05:32:06;;;;;;;5.00;2.50;;;;;;;-148.15;100.00;61821.78;4899154;29;20092;-87
2023/09/25 05:34:32;;;;;;;4.55;2.13;;;;;;;-148.15;100.00;61821.78;4910563;29;20044;-85
2023/09/25 05:36:57;;;;;;;2.87;1.97;;;;;;;-148.15;100.00;61821.78;4913314;29;20024;-85
2023/09/25 05:39:24;;;;;;;5.57;2.10;;;;;;;-148.15;100.00;61821.78;4890928;29;20042;-85
2023/09/25 05:41:50;;;;;;;2.72;2.00;;;;;;;-148.15;100.00;61821.78;4908540;29;20357;-84
2023/09/25 05:44:15;;;;;;;3.40;2.22;;;;;;;-148.15;100.00;61821.78;4910730;29;20028;-86
2023/09/25 05:46:41;;;;;;;6.20;2.17;;;;;;;-148.15;100.00;61821.78;4911956;29;20042;-87
2023/09/25 05:49:07;;;;;;;3.75;2.40;;;;;;;-148.15;100.00;61821.78;4914136;29;20035;-88
2023/09/25 05:51:32;;;;;;;4.57;1.97;;;;;;;-148.15;100.00;61821.78;4911853;29;20051;-86
2023/09/25 05:53:57;;;;;;;2.53;2.13;;;;;;;-148.15;100.00;61821.78;4912576;29;20498;-88
2023/09/25 05:56:23;;;;;;;5.33;2.17;;;;;;;-148.15;100.00;61821.78;4913396;29;20170;-84
2023/09/25 05:58:51;;;;;;;4.57;2.27;;;;;;;-148.15;100.00;61821.78;4912634;29;20043;-85
2023/09/25 06:01:17;;;;;;;4.18;2.03;;;;;;;-148.15;100.00;61821.78;4904070;29;20088;-82
2023/09/25 06:03:43;;;;;;;5.72;2.15;;;;;;;-148.15;100.00;61821.78;4906433;29;20032;-83
2023/09/25 06:06:09;;;;;;;4.53;2.20;;;;;;;-148.15;100.00;61821.78;4912531;29;20462;-83
2023/09/25 06:08:34;;;;;;;4.47;2.00;;;;;;;-148.15;100.00;61821.78;4900223;29;20079;-82
2023/09/25 06:11:02;;;;;;;4.47;1.97;;;;;;;-148.15;100.00;61821.78;4913368;29;20051;-82
2023/09/25 06:13:27;;;;;;;3.97;1.77;;;;;;;-148.15;100.00;61821.78;4912052;29;20031;-82
2023/09/25 06:15:53;;;;;;;4.90;2.20;;;;;;;-148.15;100.00;61821.78;4912470;29;20040;-82
2023/09/25 06:18:18;;;;;;;4.03;2.17;;;;;;;-148.15;100.00;61821.78;4910455;29;20074;-84
2023/09/25 06:20:44;;;;;;;3.23;1.97;;;;;;;-148.15;100.00;61821.78;4907658;29;20083;-82
2023/09/25 06:23:09;;;;;;;2.80;2.03;;;;;;;-148.15;100.00;61821.78;4910216;29;20131;-81
2023/09/25 06:25:35;;;;;;;4.15;2.28;;;;;;;-148.15;100.00;61821.78;4912710;29;20055;-81
2023/09/25 06:28:00;;;;;;;5.07;2.07;;;;;;;-148.15;100.00;61821.78;4911461;29;20036;-82
2023/09/25 06:30:27;;;;;;;8.00;2.55;;;;;;;-148.15;100.00;61821.78;4911366;29;20099;-81
2023/09/25 06:32:52;;;;;;;4.10;2.00;;;;;;;-148.15;100.00;61821.78;4912494;29;20036;-82
2023/09/25 06:35:18;;;;;;;4.10;2.70;;;;;;;-148.15;100.00;61821.78;4912038;29;20032;-82
2023/09/25 06:37:43;;;;;;;4.90;2.33;;;;;;;-148.15;100.00;61821.78;4912535;29;20561;-82
2023/09/25 06:40:09;;;;;;;5.77;2.03;;;;;;;-148.15;100.00;61821.78;4911903;29;20030;-83
2023/09/25 06:42:37;;;;;;;6.95;2.30;;;;;;;-148.15;100.00;61821.78;4910970;29;20039;-83
2023/09/25 06:45:03;;;;;;;4.22;2.35;;;;;;;-148.15;100.00;61821.78;4913232;29;20088;-83
2023/09/25 06:47:28;;;;;;;3.20;2.17;;;;;;;-148.15;100.00;61821.78;4912200;29;20040;-82
2023/09/25 06:49:54;;;;;;;2.50;1.80;;;;;;;-148.15;100.00;61821.78;4915785;29;20312;-82
2023/09/25 06:52:19;;;;;;;4.57;1.90;;;;;;;-148.15;100.00;61821.78;4915896;29;20461;-82
2023/09/25 06:54:44;;;;;;;4.37;2.10;;;;;;;-148.15;100.00;61821.78;4916930;29;20427;-81
2023/09/25 06:57:10;;;;;;;4.07;1.80;;;;;;;-148.15;100.00;61821.78;4914571;29;20036;-81
2023/09/25 06:59:35;;;;;;;4.53;1.80;;;;;;;-148.15;100.00;61821.78;4913023;29;20498;-81
2023/09/25 07:02:01;;;;;;;4.83;2.00;;;;;;;-148.15;100.00;61821.78;4910476;29;20024;-83
2023/09/25 07:04:27;;;;;;;3.37;2.10;;;;;;;-148.15;100.00;61821.78;4912848;29;20020;-81
2023/09/25 07:06:52;;;;;;;4.47;1.98;;;;;;;-148.15;100.00;61821.78;4916043;29;20032;-82
2023/09/25 07:09:17;;;;;;;5.93;2.20;;;;;;;-148.15;100.00;61821.78;4915828;29;20028;-82
2023/09/25 07:11:43;;;;;;;3.15;1.83;;;;;;;-148.15;100.00;61821.78;4916391;29;20020;-81
2023/09/25 07:14:08;;;;;;;5.50;2.27;;;;;;;-148.15;100.00;61821.78;4911937;29;20119;-82
2023/09/25 07:16:35;;;;;;;5.60;1.70;;;;;;;-148.15;100.00;61821.78;4911869;29;20032;-81
2023/09/25 07:19:00;;;;;;;2.58;1.83;;;;;;;-148.15;100.00;61821.78;4915791;29;20598;-82
2023/09/25 07:21:26;;;;;;;3.97;2.30;;;;;;;-148.15;100.00;61821.78;4910992;29;20040;-84
2023/09/25 07:23:51;;;;;;;8.03;2.20;;;;;;;-148.15;100.00;61821.78;4914331;29;20032;-83
2023/09/25 07:26:17;;;;;;;8.07;2.35;;;;;;;-148.15;100.00;61821.78;4914389;29;20028;-83
2023/09/25 07:28:45;;;;;;;4.17;2.20;;;;;;;-148.15;100.00;61821.78;4914984;29;20714;-84
2023/09/25 07:31:11;;;;;;;4.45;1.77;;;;;;;-148.15;100.00;61821.78;4915211;29;20059;-83
2023/09/25 07:33:36;;;;;;;4.88;1.90;;;;;;;-148.15;100.00;61821.78;4914671;29;20039;-84
2023/09/25 07:36:03;;;;;;;2.97;1.70;;;;;;;-148.15;100.00;61821.78;4915814;29;20040;-83
2023/09/25 07:38:29;;;;;;;4.38;2.08;;;;;;;-148.15;100.00;61821.78;4915282;29;20024;-83
2023/09/25 07:40:54;;;;;;;6.93;2.10;;;;;;;-148.15;100.00;61821.78;4915156;29;20032;-83
2023/09/25 07:43:20;;;;;;;3.73;1.63;;;;;;;-148.15;100.00;61821.78;4913162;29;20031;-83
2023/09/25 07:45:48;;;;;;;7.47;2.20;;;;;;;-148.15;100.00;61821.78;4914810;29;20057;-83
2023/09/25 07:48:14;;;;;;;4.75;1.73;;;;;;;-148.15;100.00;61821.78;4915274;29;20510;-83
2023/09/25 07:50:40;;;;;;;4.07;1.93;;;;;;;-148.15;100.00;61821.78;4914081;29;20040;-83
2023/09/25 07:53:07;;;;;;;2.83;1.60;;;;;;;-148.15;100.00;61821.78;4897423;29;20324;-83
2023/09/25 07:55:32;;;;;;;3.17;2.10;;;;;;;-148.15;100.00;61821.78;4914886;29;20119;-84
2023/09/25 07:57:59;;;;;;;5.47;1.77;;;;;;;-148.15;100.00;61821.78;4914662;29;20363;-84
2023/09/25 08:00:24;;;;;;;4.47;2.20;;;;;;;-148.15;100.00;61821.78;4895320;29;20429;-84
2023/09/25 08:02:51;;;;;;;5.25;2.40;;;;;;;-148.15;100.00;61821.78;4914176;29;20131;-84
2023/09/25 08:05:18;;;;;;;4.07;1.90;;;;;;;-148.15;100.00;61821.78;4916769;29;20032;-83
2023/09/25 08:07:45;;;;;;;3.88;1.75;;;;;;;-148.15;100.00;61821.78;4915180;29;20036;-84
2023/09/25 08:10:11;;;;;;;2.83;1.50;;;;;;;-148.15;100.00;61821.78;4915252;29;20047;-83
2023/09/25 08:12:37;;;;;;;3.17;1.77;;;;;;;-148.15;100.00;61821.78;4914616;29;20096;-84
2023/09/25 08:15:02;;;;;;;3.30;1.83;;;;;;;-148.15;100.00;61821.78;4914558;29;20303;-84
2023/09/25 08:17:28;;;;;;;2.63;1.70;;;;;;;-148.15;100.00;61821.78;4918775;29;20131;-84
2023/09/25 08:19:54;;;;;;;5.10;2.03;;;;;;;-148.15;100.00;61821.78;4913177;29;20050;-81
2023/09/25 08:22:20;;;;;;;6.23;1.93;;;;;;;-148.15;100.00;61821.78;4912347;29;20395;-85
2023/09/25 08:24:46;;;;;;;5.97;1.52;;;;;;;-148.15;100.00;61821.78;4914180;29;20024;-85
2023/09/25 08:27:12;;;;;;;3.92;2.30;;;;;;;-148.15;100.00;61821.78;4897974;29;20052;-86
2023/09/25 08:29:37;;;;;;;3.77;1.60;;;;;;;-148.15;100.00;61821.78;4912479;29;20039;-88
2023/09/25 08:32:04;;;;;;;2.30;1.65;;;;;;;-148.15;100.00;61821.78;4914315;29;20479;-85
2023/09/25 08:34:29;;;;;;;3.60;1.90;;;;;;;-148.15;100.00;61821.78;4913679;29;20036;-89
2023/09/25 08:36:54;;;;;;;3.77;2.00;;;;;;;-148.15;100.00;61821.78;4914078;29;20300;-89
2023/09/25 08:39:19;;;;;;;9.03;2.13;;;;;;;-148.15;100.00;61821.78;4914058;29;20028;-90
2023/09/25 08:41:46;;;;;;;2.87;1.67;;;;;;;-148.15;100.00;61821.78;4914348;29;20032;-89
2023/09/25 08:44:15;;;;;;;3.22;1.98;;;;;;;-148.15;100.00;61821.78;4898398;29;20031;-92
2023/09/25 08:46:41;;;;;;;2.97;1.65;;;;;;;-148.15;100.00;61821.78;4912960;29;20095;-88
2023/09/25 08:49:06;;;;;;;4.07;1.67;;;;;;;-148.15;100.00;61821.78;4917155;29;20420;-89
2023/09/25 08:51:35;;;;;;;4.43;1.80;;;;;;;-148.15;100.00;61821.78;4914391;29;20331;-89
2023/09/25 08:54:02;;;;;;;3.95;1.60;;;;;;;-148.15;100.00;61821.78;4909104;29;20156;-89
2023/09/25 08:56:29;;;;;;;3.45;1.67;;;;;;;-148.15;100.00;61821.78;4913916;29;20079;-91
2023/09/25 08:58:56;;;;;;;3.60;1.40;;;;;;;-148.15;100.00;61821.78;4915233;29;20031;-90
2023/09/25 09:01:21;;;;;;;5.00;1.80;;;;;;;-148.15;100.00;61821.78;4917761;29;20038;-91
2023/09/25 09:03:46;;;;;;;5.07;1.80;;;;;;;-148.15;100.00;61821.78;4917683;29;20024;-89
2023/09/25 09:06:12;;;;;;;3.57;1.50;;;;;;;-148.15;100.00;61821.78;4919788;29;20060;-87
2023/09/25 09:08:39;;;;;;;2.95;1.45;;;;;;;-148.15;100.00;61821.78;4916190;29;20446;-89
2023/09/25 09:11:10;;;;;;;5.25;1.80;;;;;;;-148.15;100.00;61821.78;4898336;29;20036;-89
2023/09/25 09:13:46;;;;;;;5.30;1.63;;;;;;;-148.15;100.00;61821.78;4907420;29;20039;-87
2023/09/25 09:16:21;;;;;;;3.83;1.80;;;;;;;-148.15;100.00;61821.78;4913710;29;20395;-89
2023/09/25 09:18:47;;;;;;;2.63;1.60;;;;;;;-148.15;100.00;61821.78;4915341;29;20284;-84
2023/09/25 09:21:26;;;;;;;6.20;1.55;;;;;;;-148.15;100.00;61821.78;4892222;29;20091;-85
2023/09/25 09:23:57;;;;;;;4.40;1.50;;;;;;;-148.15;100.00;61821.78;4933091;29;20036;-85
2023/09/25 09:26:23;;;;;;;3.92;1.80;;;;;;;-148.15;100.00;61821.78;4927183;29;20016;-87
2023/09/25 09:28:49;;;;;;;5.82;1.52;;;;;;;-148.15;100.00;61821.78;4895366;29;20044;-86
2023/09/25 09:31:17;;;;;;;3.35;1.70;;;;;;;-148.15;100.00;61821.78;4896408;29;20047;-85
2023/09/25 09:33:43;;;;;;;3.40;1.40;;;;;;;-148.15;100.00;61821.78;4913410;29;20508;-88
2023/09/25 09:36:12;;;;;;;4.27;1.80;;;;;;;-148.15;100.00;61821.78;4914943;29;20284;-86
2023/09/25 09:38:42;;;;;;;5.85;1.75;;;;;;;-148.15;100.00;61821.78;4912288;29;20042;-86
2023/09/25 09:41:08;;;;;;;3.53;1.60;;;;;;;-148.15;100.00;61821.78;4911425;29;20050;-86
2023/09/25 09:43:34;;;;;;;6.22;1.70;;;;;;;-148.15;100.00;61821.78;4895715;29;20036;-85
2023/09/25 09:46:00;;;;;;;3.10;1.70;;;;;;;-148.15;100.00;61821.78;4914332;29;20377;-87
2023/09/25 09:48:29;;;;;;;3.90;1.80;;;;;;;-148.15;100.00;61821.78;4904701;29;20028;-85
2023/09/25 09:50:59;;;;;;;2.63;1.90;;;;;;;-148.15;100.00;61821.78;4912176;29;20825;-86
2023/09/25 09:53:28;;;;;;;3.92;1.80;;;;;;;-148.15;100.00;61821.78;4910859;29;20034;-85
2023/09/25 09:55:53;;;;;;;2.70;1.63;;;;;;;-148.15;100.00;61821.78;4912770;29;20040;-86
2023/09/25 09:58:19;;;;;;;5.33;2.07;;;;;;;-148.15;100.00;61821.78;4911268;29;21439;-86
2023/09/25 10:00:44;;;;;;;4.00;1.80;;;;;;;-148.15;100.00;61821.78;4908073;29;20028;-86
2023/09/25 10:03:10;;;;;;;7.73;1.60;;;;;;;-148.15;100.00;61821.78;4903680;29;20032;-86
2023/09/25 10:05:47;;;;;;;3.75;1.67;;;;;;;-148.15;100.00;61821.78;4910434;29;20314;-86
2023/09/25 10:08:12;;;;;;;4.22;1.50;;;;;;;-148.15;100.00;61821.78;4917346;29;20472;-86
2023/09/25 10:10:41;;;;;;;2.37;1.70;;;;;;;-148.15;100.00;61821.78;4904562;29;20036;-86
2023/09/25 10:13:17;;;;;;;4.07;1.55;;;;;;;-148.15;100.00;61821.78;4910196;29;20079;-86
2023/09/25 10:16:02;;;;;;;3.75;1.55;;;;;;;-148.15;100.00;61821.78;4904799;29;20459;-86
2023/09/25 10:18:30;;;;;;;4.68;2.00;;;;;;;-148.15;100.00;61821.78;4911845;29;20020;-87
2023/09/25 10:21:10;;;;;;;1.47;1.37;;;;;;;-148.15;100.00;61821.78;4913489;29;20032;-86
2023/09/25 10:23:39;;;;;;;4.17;2.17;;;;;;;-148.15;100.00;61821.78;4914244;29;20355;-85
2023/09/25 10:26:08;;;;;;;2.70;1.40;;;;;;;-148.15;100.00;61821.78;4915888;29;20036;-87
2023/09/25 10:28:38;;;;;;;3.40;1.50;;;;;;;-148.15;100.00;61821.78;4913967;29;20020;-86
2023/09/25 10:31:18;;;;;;;2.05;1.42;;;;;;;-148.15;100.00;61821.78;4916705;29;20040;-86
2023/09/25 10:33:59;;;;;;;2.97;1.45;;;;;;;-148.15;100.00;61821.78;4916916;29;20396;-86
2023/09/25 10:36:40;;;;;;;3.08;1.50;;;;;;;-148.15;100.00;61821.78;4913751;29;20077;-86
2023/09/25 10:39:13;;;;;;;5.53;1.43;;;;;;;-148.15;100.00;61821.78;4916733;29;20028;-86
2023/09/25 10:41:39;;;;;;;2.70;1.53;;;;;;;-148.15;100.00;61821.78;4898576;29;20304;-85
2023/09/25 10:44:05;;;;;;;2.63;1.70;;;;;;;-148.15;100.00;61821.78;4912235;29;20039;-86
2023/09/25 10:46:30;;;;;;;4.22;1.48;;;;;;;-148.15;100.00;61821.78;4916167;29;20388;-86
2023/09/25 10:48:56;;;;;;;5.20;1.90;;;;;;;-148.15;100.00;61821.78;4915651;29;20039;-86
2023/09/25 10:51:22;;;;;;;3.30;1.83;;;;;;;-148.15;100.00;61821.78;4915356;29;20303;-86
2023/09/25 10:53:47;;;;;;;2.70;1.38;;;;;;;-148.15;100.00;61821.78;4916022;29;20556;-86
2023/09/25 10:56:13;;;;;;;2.73;1.73;;;;;;;-148.15;100.00;61821.78;4916931;29;20504;-86
2023/09/25 10:58:38;;;;;;;2.53;1.80;;;;;;;-148.15;100.00;61821.78;4913798;29;20020;-87
2023/09/25 11:01:04;;;;;;;2.53;1.67;;;;;;;-148.15;100.00;61821.78;4898054;29;20032;-86
2023/09/25 11:03:31;;;;;;;3.00;1.63;;;;;;;-148.15;100.00;61821.78;4899674;29;20280;-86
2023/09/25 11:05:58;;;;;;;2.47;1.65;;;;;;;-148.15;100.00;61821.78;4894566;29;20029;-85
2023/09/25 11:08:26;;;;;;;2.80;1.55;;;;;;;-148.15;100.00;61821.78;4912959;29;20178;-85
2023/09/25 11:10:51;;;;;;;2.58;1.40;;;;;;;-148.15;100.00;61821.78;4911941;29;20033;-86
2023/09/25 11:13:17;;;;;;;5.60;1.97;;;;;;;-148.15;100.00;61821.78;4906793;29;20035;-86
2023/09/25 11:15:44;;;;;;;4.22;2.00;;;;;;;-148.15;100.00;61821.78;4916910;29;20136;-83
2023/09/25 11:18:10;;;;;;;1.77;1.42;;;;;;;-148.15;100.00;61821.78;4917675;29;20129;-89
2023/09/25 11:20:37;;;;;;;2.93;1.53;;;;;;;-148.15;100.00;61821.78;4921068;29;20039;-86